KMCW

Mason City Municipal Airport

Mason City, Iowa, USA
METAR KMCW 230817Z AUTO 14005KT 8SM VCTS -RA SCT065 BKN085 OVC110 18/17 A3009 RMK AO2 LTG DSNT ALQDS P0001 T01780167
Observed Flight Rules
May-23 @ 08:17 UTC (38 minutes ago) Visual Flight Rules
Wind Visibility Clouds Conditions
140° at 5 knots 8 miles
  • Scattered at 6,500' AGL
  • Broken at 8,500' AGL
  • Overcast at 11,000' AGL
  • Area Thunderstorm
  • Light Rain
Temperatures Readings Precipitation
Current 18°C / 64°F
Dewpoint 17°C / 63°F
Humidity 94%
Altimeter 30.09" Hg
Pressure 1019 hPa
Elevation 369
Current Rain 0.01
METAR KMCW 230817Z AUTO 14005KT 8SM VCTS -RA SCT065 BKN085 OVC110 18/17 A3009 RMK AO2 LTG DSNT ALQDS P0001 T01780167
Observed Flight Rules
May-23 @ 08:17 UTC
(38 minutes ago)
VFR
Wind Visibility
140° at 5 knots 8 miles
Clouds
  • Scattered at 6,500' AGL
  • Broken at 8,500' AGL
  • Overcast at 11,000' AGL
Conditions
  • Area Thunderstorm
  • Light Rain
Temperature Dewpoint
18°C / 64°F 17°C / 63°F
Humidity Altimeter Pressure
94% 30.09" Hg 1019 hPa
Current Rain
0.01